createdAt,value
2022-12-01T00:01:10.038Z,6.36
2022-12-01T00:03:36.933Z,6.13
2022-12-01T00:06:12.300Z,6.26
2022-12-01T00:08:39.020Z,6.27
2022-12-01T00:11:11.645Z,6.21
2022-12-01T00:13:38.473Z,6.25
2022-12-01T00:16:17.015Z,6.31
2022-12-01T00:18:44.279Z,6.25
2022-12-01T00:21:22.372Z,6.05
2022-12-01T00:23:51.864Z,6.09
2022-12-01T00:26:21.183Z,6.12
2022-12-01T00:28:56.591Z,6.20
2022-12-01T00:31:24.237Z,6.02
2022-12-01T00:33:51.293Z,5.94
2022-12-01T00:36:18.315Z,6.17
2022-12-01T00:38:45.435Z,6.09
2022-12-01T00:41:12.279Z,5.97
2022-12-01T00:43:39.942Z,5.85
2022-12-01T00:46:06.793Z,5.79
2022-12-01T00:48:33.789Z,5.86
2022-12-01T00:51:00.591Z,5.78
2022-12-01T00:53:27.316Z,5.63
2022-12-01T00:55:54.302Z,5.62
2022-12-01T00:58:21.748Z,5.73
2022-12-01T01:00:48.691Z,5.83
2022-12-01T01:03:15.648Z,5.74
2022-12-01T01:05:43.320Z,5.79
2022-12-01T01:08:11.386Z,5.86
2022-12-01T01:10:39.617Z,5.94
2022-12-01T01:13:06.480Z,5.85
2022-12-01T01:15:33.587Z,5.85
2022-12-01T01:18:00.962Z,5.89
2022-12-01T01:20:27.960Z,5.64
2022-12-01T01:22:54.792Z,5.93
2022-12-01T01:25:21.775Z,5.82
2022-12-01T01:27:48.728Z,5.87
2022-12-01T01:30:15.712Z,5.74
2022-12-01T01:32:42.513Z,5.76
2022-12-01T01:35:09.613Z,5.81
2022-12-01T01:37:36.551Z,5.83
2022-12-01T01:40:03.503Z,5.79
2022-12-01T01:42:30.129Z,5.94
2022-12-01T01:44:58.077Z,5.75
2022-12-01T01:47:43.036Z,5.77
2022-12-01T01:50:14.971Z,5.92
2022-12-01T01:53:02.819Z,5.93
2022-12-01T01:55:34.239Z,5.80
2022-12-01T01:58:03.261Z,5.69
2022-12-01T02:00:29.923Z,5.64
2022-12-01T02:02:57.558Z,5.78
2022-12-01T02:05:27.211Z,5.87
2022-12-01T02:07:57.336Z,5.96
2022-12-01T02:10:58.807Z,5.72
2022-12-01T02:13:34.759Z,5.80
2022-12-01T02:16:51.109Z,5.82
2022-12-01T02:20:02.797Z,5.73
2022-12-01T02:23:03.461Z,5.65
2022-12-01T02:26:02.941Z,5.68
2022-12-01T02:28:59.325Z,5.52
2022-12-01T02:31:47.212Z,5.71
2022-12-01T02:34:21.895Z,5.72
2022-12-01T02:36:57.053Z,5.68
2022-12-01T02:39:38.869Z,5.74
2022-12-01T02:42:39.226Z,5.85
2022-12-01T02:45:10.753Z,5.72
2022-12-01T02:47:38.881Z,5.70
2022-12-01T02:50:07.500Z,5.44
2022-12-01T02:52:34.962Z,5.51
2022-12-01T02:55:01.969Z,5.44
2022-12-01T02:57:30.305Z,5.46
2022-12-01T02:59:57.377Z,5.37
2022-12-01T03:02:49.682Z,5.35
2022-12-01T03:05:26.569Z,5.38
2022-12-01T03:08:02.167Z,5.37
2022-12-01T03:10:55.629Z,5.32
2022-12-01T03:13:52.320Z,5.27
2022-12-01T03:16:36.817Z,5.35
2022-12-01T03:19:08.125Z,5.32
2022-12-01T03:21:50.571Z,5.20
2022-12-01T03:24:20.420Z,5.26
2022-12-01T03:26:49.745Z,5.16
2022-12-01T03:29:18.710Z,5.05
2022-12-01T03:31:49.030Z,5.06
2022-12-01T03:34:24.343Z,5.10
2022-12-01T03:36:58.331Z,4.99
2022-12-01T03:39:29.659Z,4.96
2022-12-01T03:42:37.044Z,4.88
2022-12-01T03:45:08.514Z,4.94
2022-12-01T03:47:37.753Z,4.93
2022-12-01T03:50:05.956Z,4.94
2022-12-01T03:53:05.887Z,4.95
2022-12-01T03:55:38.197Z,4.88
2022-12-01T03:58:10.290Z,4.84
2022-12-01T04:00:37.489Z,4.78
2022-12-01T04:03:05.350Z,4.99
2022-12-01T04:05:33.790Z,4.85
2022-12-01T04:08:01.124Z,4.81
2022-12-01T04:10:28.555Z,4.77
2022-12-01T04:12:59.751Z,4.70
2022-12-01T04:15:27.612Z,4.69
2022-12-01T04:17:54.527Z,4.60
2022-12-01T04:20:21.478Z,4.67
2022-12-01T04:22:48.377Z,4.48
2022-12-01T04:25:15.348Z,4.49
2022-12-01T04:27:42.217Z,4.62
2022-12-01T04:30:09.797Z,4.55
2022-12-01T04:32:40.598Z,4.44
2022-12-01T04:35:09.489Z,4.47
2022-12-01T04:37:36.561Z,4.34
2022-12-01T04:40:03.935Z,4.35
2022-12-01T04:42:30.731Z,4.38
2022-12-01T04:44:57.649Z,4.49
2022-12-01T04:47:24.388Z,4.65
2022-12-01T04:49:51.388Z,4.77
2022-12-01T04:52:18.228Z,4.79
2022-12-01T04:54:44.922Z,4.58
2022-12-01T04:57:11.684Z,4.67
2022-12-01T04:59:38.367Z,4.64
2022-12-01T05:02:05.089Z,4.57
2022-12-01T05:04:34.094Z,4.39
2022-12-01T05:07:00.851Z,4.48
2022-12-01T05:09:27.704Z,4.45
2022-12-01T05:11:54.538Z,4.31
2022-12-01T05:14:21.292Z,4.46
2022-12-01T05:16:48.099Z,4.47
2022-12-01T05:19:33.593Z,4.60
2022-12-01T05:22:00.271Z,4.43
2022-12-01T05:24:27.340Z,4.52
2022-12-01T05:26:54.414Z,4.27
2022-12-01T05:29:21.346Z,4.46
2022-12-01T05:31:48.222Z,4.49
2022-12-01T05:34:15.066Z,4.59
2022-12-01T05:36:42.365Z,4.71
2022-12-01T05:39:09.085Z,4.55
2022-12-01T05:41:36.184Z,4.46
2022-12-01T05:44:02.869Z,4.42
2022-12-01T05:46:29.569Z,4.40
2022-12-01T05:48:56.199Z,4.20
2022-12-01T05:51:22.954Z,4.27
2022-12-01T05:53:49.856Z,4.42
2022-12-01T05:56:16.546Z,4.38
2022-12-01T05:58:43.266Z,4.28
2022-12-01T06:01:10.245Z,4.33
2022-12-01T06:03:36.948Z,4.32
2022-12-01T06:06:03.900Z,4.22
2022-12-01T06:08:30.677Z,4.13
2022-12-01T06:10:57.475Z,4.07
2022-12-01T06:13:24.103Z,4.31
2022-12-01T06:16:02.724Z,4.31
2022-12-01T06:18:37.583Z,4.17
2022-12-01T06:21:06.216Z,4.11
2022-12-01T06:23:33.125Z,3.98
2022-12-01T06:25:59.998Z,3.96
2022-12-01T06:28:26.966Z,3.94
2022-12-01T06:30:57.781Z,3.97
2022-12-01T06:33:28.167Z,3.89
2022-12-01T06:36:02.284Z,4.10
2022-12-01T06:38:32.757Z,4.05
2022-12-01T06:40:59.714Z,3.96
2022-12-01T06:43:26.709Z,3.98
2022-12-01T06:45:59.455Z,4.17
2022-12-01T06:48:28.209Z,4.17
2022-12-01T06:50:58.449Z,4.19
2022-12-01T06:53:27.501Z,3.99
2022-12-01T06:55:55.305Z,4.25
2022-12-01T06:58:22.675Z,3.96
2022-12-01T07:00:52.207Z,4.16
2022-12-01T07:03:19.211Z,4.23
2022-12-01T07:05:55.315Z,4.17
2022-12-01T07:08:21.958Z,4.18
2022-12-01T07:11:00.222Z,4.20
2022-12-01T07:13:32.804Z,4.21
2022-12-01T07:16:01.453Z,4.12
2022-12-01T07:18:29.085Z,4.22
2022-12-01T07:21:03.283Z,4.25
2022-12-01T07:23:31.083Z,4.21
2022-12-01T07:26:11.254Z,4.15
2022-12-01T07:28:38.235Z,4.13
2022-12-01T07:31:13.039Z,4.11
2022-12-01T07:33:40.189Z,4.09
2022-12-01T07:36:08.283Z,4.19
2022-12-01T07:38:35.757Z,4.26
2022-12-01T07:41:07.206Z,4.18
2022-12-01T07:43:34.595Z,4.27
2022-12-01T07:46:05.710Z,4.09
2022-12-01T07:48:32.618Z,4.17
2022-12-01T07:50:59.455Z,4.07
2022-12-01T07:53:26.420Z,4.24
2022-12-01T07:55:53.157Z,4.21
2022-12-01T07:58:19.914Z,4.27
2022-12-01T08:00:46.775Z,4.35
2022-12-01T08:03:14.651Z,4.20
2022-12-01T08:05:41.478Z,4.22
2022-12-01T08:08:08.250Z,4.29
2022-12-01T08:10:35.852Z,4.27
2022-12-01T08:13:02.513Z,4.20
2022-12-01T08:15:29.554Z,4.16
2022-12-01T08:17:56.330Z,4.13
2022-12-01T08:20:24.193Z,4.29
2022-12-01T08:22:50.950Z,4.22
2022-12-01T08:25:17.812Z,4.20
2022-12-01T08:27:44.535Z,4.17
2022-12-01T08:30:12.041Z,4.05
2022-12-01T08:32:38.796Z,4.12
2022-12-01T08:35:06.113Z,4.09
2022-12-01T08:37:32.855Z,4.06
2022-12-01T08:39:59.582Z,4.22
2022-12-01T08:42:26.460Z,4.31
2022-12-01T08:44:53.226Z,4.25
2022-12-01T08:47:20.009Z,4.20
2022-12-01T08:49:46.954Z,4.27
2022-12-01T08:52:13.801Z,4.33
2022-12-01T08:54:40.521Z,4.32
2022-12-01T08:57:07.663Z,4.35
2022-12-01T08:59:34.350Z,4.40
2022-12-01T09:02:05.491Z,4.15
2022-12-01T09:04:33.719Z,4.14
2022-12-01T09:07:00.728Z,4.27
2022-12-01T09:09:28.865Z,4.28
2022-12-01T09:11:56.102Z,4.23
2022-12-01T09:14:23.589Z,4.22
2022-12-01T09:16:51.052Z,4.28
2022-12-01T09:19:24.055Z,4.31
2022-12-01T09:21:51.842Z,4.32
2022-12-01T09:24:18.669Z,4.47
2022-12-01T09:26:45.395Z,4.50
2022-12-01T09:29:14.142Z,4.36
2022-12-01T09:31:41.117Z,4.21
2022-12-01T09:34:14.363Z,4.43
2022-12-01T09:36:41.127Z,4.54
2022-12-01T09:39:09.234Z,4.58
2022-12-01T09:41:39.070Z,4.65
2022-12-01T09:44:38.359Z,4.56
2022-12-01T09:47:19.444Z,4.43
2022-12-01T09:49:55.691Z,4.49
2022-12-01T09:52:24.673Z,4.40
2022-12-01T09:54:52.727Z,4.47
2022-12-01T09:57:38.657Z,4.45
2022-12-01T10:00:13.443Z,4.47
2022-12-01T10:02:44.051Z,4.53
2022-12-01T10:05:15.262Z,4.46
2022-12-01T10:07:55.763Z,4.45
2022-12-01T10:10:35.926Z,4.52
2022-12-01T10:13:02.902Z,4.35
2022-12-01T10:16:01.206Z,4.50
2022-12-01T10:18:44.728Z,4.46
2022-12-01T10:21:23.768Z,4.56
2022-12-01T10:24:16.408Z,4.45
2022-12-01T10:26:59.444Z,4.43
2022-12-01T10:29:48.329Z,4.38
2022-12-01T10:32:19.350Z,4.33
2022-12-01T10:34:48.064Z,4.34
2022-12-01T10:37:19.336Z,4.45
2022-12-01T10:39:49.473Z,4.39
2022-12-01T10:42:51.732Z,4.25
2022-12-01T10:45:23.332Z,4.48
2022-12-01T10:48:10.242Z,4.32
2022-12-01T10:50:37.609Z,4.47
2022-12-01T10:53:04.893Z,4.19
2022-12-01T10:55:43.492Z,4.24
2022-12-01T10:58:15.982Z,4.20
2022-12-01T11:00:59.727Z,4.31
2022-12-01T11:03:28.436Z,4.09
2022-12-01T11:06:00.945Z,4.27
2022-12-01T11:08:43.976Z,4.29
2022-12-01T11:11:32.575Z,4.41
2022-12-01T11:14:02.924Z,4.45
2022-12-01T11:16:50.648Z,4.14
2022-12-01T11:19:32.851Z,4.24
2022-12-01T11:22:01.892Z,4.31
2022-12-01T11:24:43.532Z,4.36
2022-12-01T11:27:26.039Z,4.35
2022-12-01T11:29:56.231Z,4.24
2022-12-01T11:32:31.428Z,4.21
2022-12-01T11:35:05.071Z,4.13
2022-12-01T11:37:36.887Z,4.30
2022-12-01T11:40:30.897Z,4.11
2022-12-01T11:43:00.144Z,4.26
2022-12-01T11:45:30.406Z,4.08
2022-12-01T11:48:03.140Z,4.19
2022-12-01T11:50:33.600Z,4.11
2022-12-01T11:53:00.768Z,4.16
2022-12-01T11:55:30.076Z,4.34
2022-12-01T11:58:01.652Z,4.27
2022-12-01T12:00:43.844Z,4.28
2022-12-01T12:03:30.975Z,4.45
2022-12-01T12:06:39.868Z,4.32
2022-12-01T12:09:15.416Z,4.27
2022-12-01T12:11:54.311Z,4.31
2022-12-01T12:14:35.836Z,4.45
2022-12-01T12:17:12.893Z,4.43
2022-12-01T12:20:50.670Z,4.41
2022-12-01T12:23:59.937Z,4.47
2022-12-01T12:26:33.376Z,4.41
2022-12-01T12:33:22.430Z,4.26
2022-12-01T12:36:04.914Z,4.16
2022-12-01T12:38:45.620Z,4.15
2022-12-01T12:41:41.950Z,4.18
2022-12-01T12:44:51.723Z,4.15
2022-12-01T12:47:18.709Z,4.24
2022-12-01T12:50:04.909Z,4.13
2022-12-01T12:52:35.649Z,4.14
2022-12-01T12:55:25.430Z,4.11
2022-12-01T12:58:11.326Z,4.09
2022-12-01T13:00:54.906Z,4.07
2022-12-01T13:03:39.816Z,4.15
2022-12-01T13:06:07.715Z,4.18
2022-12-01T13:08:44.860Z,4.22
2022-12-01T13:11:19.779Z,4.14
2022-12-01T13:14:07.415Z,4.21
2022-12-01T13:16:37.885Z,4.21
2022-12-01T13:19:13.893Z,4.11
2022-12-01T13:21:43.632Z,4.12
2022-12-01T13:24:22.821Z,4.08
2022-12-01T13:26:56.595Z,4.28
2022-12-01T13:29:25.358Z,4.15
2022-12-01T13:31:54.675Z,4.27
2022-12-01T13:34:26.088Z,4.07
2022-12-01T13:36:54.338Z,4.33
2022-12-01T13:39:29.381Z,4.21
2022-12-01T13:42:02.589Z,4.19
2022-12-01T13:44:41.677Z,4.13
2022-12-01T13:47:31.992Z,4.19
2022-12-01T13:50:39.422Z,4.07
2022-12-01T13:53:27.663Z,4.11
2022-12-01T13:56:18.065Z,4.02
2022-12-01T13:58:52.764Z,4.13
2022-12-01T14:01:43.530Z,3.95
2022-12-01T14:04:27.017Z,3.92
2022-12-01T14:07:34.392Z,3.91
2022-12-01T14:10:23.898Z,3.83
2022-12-01T14:12:52.259Z,3.95
2022-12-01T14:15:43.129Z,3.79
2022-12-01T14:18:40.499Z,3.79
2022-12-01T14:21:11.066Z,3.85
2022-12-01T14:23:41.499Z,3.97
2022-12-01T14:26:22.742Z,3.93
2022-12-01T14:29:15.774Z,4.02
2022-12-01T14:31:45.325Z,4.01
2022-12-01T14:34:21.410Z,3.94
2022-12-01T14:37:20.656Z,3.80
2022-12-01T14:40:08.274Z,3.81
2022-12-01T14:43:02.561Z,3.66
2022-12-01T14:45:41.272Z,3.80
2022-12-01T14:48:18.007Z,3.65
2022-12-01T14:50:50.674Z,3.60
2022-12-01T14:53:24.760Z,3.55
2022-12-01T14:56:09.209Z,3.55
2022-12-01T14:58:36.651Z,3.69
2022-12-01T15:01:12.648Z,3.49
2022-12-01T15:03:49.261Z,3.55
2022-12-01T15:06:17.856Z,3.43
2022-12-01T15:08:58.428Z,3.25
2022-12-01T15:11:31.926Z,3.23
2022-12-01T15:13:58.715Z,3.27
2022-12-01T15:16:29.236Z,3.26
2022-12-01T15:18:57.357Z,3.17
2022-12-01T15:21:29.795Z,3.18
2022-12-01T15:24:21.455Z,3.18
2022-12-01T15:26:51.230Z,3.25
2022-12-01T15:29:19.663Z,3.13
2022-12-01T15:31:52.150Z,3.14
2022-12-01T15:34:29.093Z,3.02
2022-12-01T15:36:56.463Z,3.11
2022-12-01T15:39:32.028Z,3.11
2022-12-01T15:41:59.567Z,2.97
2022-12-01T15:44:30.353Z,3.09
2022-12-01T15:46:57.527Z,3.08
2022-12-01T15:49:30.288Z,3.05
2022-12-01T15:52:09.541Z,3.06
2022-12-01T15:54:37.002Z,3.06
2022-12-01T15:57:04.170Z,3.05
2022-12-01T15:59:54.856Z,3.10
2022-12-01T16:02:32.955Z,3.03
2022-12-01T16:05:02.555Z,3.09
2022-12-01T16:08:11.503Z,3.09
2022-12-01T16:10:33.150Z,3.11
2022-12-01T16:13:51.446Z,3.07
2022-12-01T16:16:37.580Z,3.14
2022-12-01T16:19:23.782Z,3.15
2022-12-01T16:21:53.136Z,3.05
2022-12-01T16:24:43.231Z,3.19
2022-12-01T16:27:27.638Z,3.13
2022-12-01T16:30:01.458Z,3.12
2022-12-01T16:32:38.930Z,3.04
2022-12-01T16:35:08.137Z,2.81
2022-12-01T16:37:35.241Z,2.93
2022-12-01T16:40:02.251Z,3.15
2022-12-01T16:42:29.272Z,3.15
2022-12-01T16:44:56.670Z,3.04
2022-12-01T16:47:25.539Z,2.98
2022-12-01T16:49:53.347Z,3.02
2022-12-01T16:55:23.404Z,2.99
2022-12-01T16:57:50.330Z,2.96
2022-12-01T17:00:17.721Z,2.93
2022-12-01T17:02:44.618Z,2.97
2022-12-01T17:05:12.189Z,2.85
2022-12-01T17:07:39.034Z,2.96
2022-12-01T17:10:06.830Z,3.00
2022-12-01T17:12:33.595Z,3.01
2022-12-01T17:15:00.575Z,3.04
2022-12-01T17:17:28.760Z,2.89
2022-12-01T17:19:55.918Z,2.97
2022-12-01T17:22:22.787Z,2.99
2022-12-01T17:24:50.478Z,3.10
2022-12-01T17:27:17.932Z,3.02
2022-12-01T17:29:46.433Z,3.05
2022-12-01T17:32:14.644Z,2.85
2022-12-01T17:34:41.652Z,2.87
2022-12-01T17:37:08.414Z,2.90
2022-12-01T17:39:35.592Z,2.72
2022-12-01T17:42:02.821Z,2.69
2022-12-01T17:44:29.788Z,2.88
2022-12-01T17:46:56.764Z,2.91
2022-12-01T17:49:24.048Z,3.00
2022-12-01T17:51:51.032Z,2.94
2022-12-01T17:54:19.443Z,2.89
2022-12-01T17:56:46.298Z,2.89
2022-12-01T17:59:13.373Z,2.84
2022-12-01T18:01:42.385Z,2.82
2022-12-01T18:04:09.563Z,2.80
2022-12-01T18:06:36.861Z,2.70
2022-12-01T18:09:04.690Z,2.71
2022-12-01T18:11:32.116Z,2.68
2022-12-01T18:14:00.952Z,2.69
2022-12-01T18:16:30.481Z,2.86
2022-12-01T18:18:59.924Z,2.72
2022-12-01T18:21:28.249Z,2.69
2022-12-01T18:24:01.368Z,2.82
2022-12-01T18:26:29.423Z,2.62
2022-12-01T18:29:02.085Z,2.70
2022-12-01T18:31:31.030Z,2.69
2022-12-01T18:34:02.804Z,2.75
2022-12-01T18:36:32.171Z,2.84
2022-12-01T18:39:01.312Z,2.80
2022-12-01T18:41:28.905Z,2.69
2022-12-01T18:43:56.058Z,2.67
2022-12-01T18:46:22.985Z,2.76
2022-12-01T18:48:52.886Z,2.43
2022-12-01T18:51:20.964Z,2.61
2022-12-01T18:53:48.421Z,2.76
2022-12-01T18:56:17.334Z,2.80
2022-12-01T18:58:44.136Z,2.88
2022-12-01T19:01:28.475Z,2.97
2022-12-01T19:03:56.240Z,3.05
2022-12-01T19:06:23.757Z,2.98
2022-12-01T19:08:52.674Z,2.87
2022-12-01T19:11:20.025Z,3.00
2022-12-01T19:13:46.972Z,2.94
2022-12-01T19:16:16.005Z,3.07
2022-12-01T19:18:43.585Z,3.03
2022-12-01T19:21:13.241Z,3.04
2022-12-01T19:23:41.670Z,3.06
2022-12-01T19:26:12.112Z,3.03
2022-12-01T19:28:41.212Z,2.96
2022-12-01T19:31:16.099Z,2.93
2022-12-01T19:33:43.108Z,2.73
2022-12-01T19:36:16.095Z,2.77
2022-12-01T19:38:45.215Z,2.84
2022-12-01T19:41:13.600Z,2.78
2022-12-01T19:43:40.999Z,2.95
2022-12-01T19:46:09.661Z,2.94
2022-12-01T19:48:37.041Z,2.78
2022-12-01T19:51:04.390Z,2.65
2022-12-01T19:53:34.034Z,2.72
2022-12-01T19:56:05.331Z,2.83
2022-12-01T19:58:33.463Z,2.96
2022-12-01T20:01:09.492Z,2.84
2022-12-01T20:03:36.569Z,2.65
2022-12-01T20:06:06.020Z,2.77
2022-12-01T20:08:35.907Z,2.53
2022-12-01T20:11:04.511Z,2.71
2022-12-01T20:13:33.212Z,2.58
2022-12-01T20:16:13.571Z,2.59
2022-12-01T20:18:40.996Z,2.69
2022-12-01T20:21:17.494Z,2.60
2022-12-01T20:23:59.533Z,2.65
2022-12-01T20:26:30.817Z,2.61
2022-12-01T20:29:11.729Z,2.59
2022-12-01T20:31:39.310Z,2.72
2022-12-01T20:34:16.439Z,2.72
2022-12-01T20:36:43.324Z,2.75
2022-12-01T20:39:11.886Z,2.55
2022-12-01T20:41:41.581Z,2.54
2022-12-01T20:44:09.074Z,2.46
2022-12-01T20:46:37.871Z,2.46
2022-12-01T20:49:05.615Z,2.56
2022-12-01T20:51:33.579Z,2.60
2022-12-01T20:54:27.436Z,2.63
2022-12-01T20:56:52.806Z,2.68
2022-12-01T20:59:19.827Z,2.79
2022-12-01T21:01:46.713Z,2.64
2022-12-01T21:04:14.395Z,2.72
2022-12-01T21:06:41.239Z,2.78
2022-12-01T21:09:08.906Z,2.76
2022-12-01T21:12:03.304Z,2.68
2022-12-01T21:14:40.120Z,2.70
2022-12-01T21:17:18.634Z,2.78
2022-12-01T21:19:52.671Z,2.72
2022-12-01T21:22:20.705Z,2.84
2022-12-01T21:24:51.600Z,2.72
2022-12-01T21:27:19.396Z,2.71
2022-12-01T21:29:48.774Z,2.82
2022-12-01T21:32:42.554Z,2.83
2022-12-01T21:35:22.001Z,2.74
2022-12-01T21:37:50.346Z,2.82
2022-12-01T21:40:20.606Z,2.97
2022-12-01T21:42:47.727Z,2.86
2022-12-01T21:45:34.909Z,2.81
2022-12-01T21:48:23.398Z,2.84
2022-12-01T21:50:59.884Z,2.71
2022-12-01T21:53:31.546Z,2.67
2022-12-01T21:55:58.337Z,2.72
2022-12-01T21:58:31.266Z,2.67
2022-12-01T22:00:59.648Z,2.77
2022-12-01T22:03:32.305Z,2.63
2022-12-01T22:06:29.311Z,2.48
2022-12-01T22:08:50.128Z,2.65
2022-12-01T22:11:21.165Z,2.56
2022-12-01T22:13:52.712Z,2.65
2022-12-01T22:16:32.763Z,2.69
2022-12-01T22:19:01.949Z,2.53
2022-12-01T22:21:33.085Z,2.46
2022-12-01T22:24:13.658Z,2.44
2022-12-01T22:26:43.356Z,2.67
2022-12-01T22:29:23.034Z,2.72
2022-12-01T22:31:49.987Z,2.87
2022-12-01T22:34:17.333Z,2.68
2022-12-01T22:36:44.349Z,2.53
2022-12-01T22:39:37.488Z,2.64
2022-12-01T22:42:08.911Z,2.43
2022-12-01T22:44:35.941Z,2.70
2022-12-01T22:47:03.077Z,2.66
2022-12-01T22:49:30.450Z,2.55
2022-12-01T22:52:03.245Z,2.67
2022-12-01T22:54:34.520Z,2.34
2022-12-01T22:57:15.847Z,2.50
2022-12-01T22:59:44.022Z,2.48
2022-12-01T23:02:42.174Z,2.53
2022-12-01T23:05:18.275Z,2.48
2022-12-01T23:07:46.213Z,2.57
2022-12-01T23:10:13.205Z,2.58
2022-12-01T23:12:40.424Z,2.51
2022-12-01T23:15:34.978Z,2.38
2022-12-01T23:18:22.374Z,2.48
2022-12-01T23:20:55.116Z,2.43
2022-12-01T23:23:28.217Z,2.28
2022-12-01T23:25:55.607Z,2.31
2022-12-01T23:28:23.330Z,2.24
2022-12-01T23:30:56.361Z,2.40
2022-12-01T23:33:25.042Z,2.22
2022-12-01T23:35:56.256Z,2.22
2022-12-01T23:38:32.775Z,2.36
2022-12-01T23:41:01.396Z,2.19
2022-12-01T23:43:31.977Z,2.26
2022-12-01T23:46:06.458Z,2.25
2022-12-01T23:48:36.723Z,2.21
2022-12-01T23:51:04.157Z,2.11
2022-12-01T23:53:32.739Z,2.21
2022-12-01T23:56:06.795Z,2.27
2022-12-01T23:58:34.112Z,2.32
